Main page
METAR-TAF:

METAR-TAF

Airports :

Mitiga International Airport

Tripoli, Libya

latitude: 32-54N, longitude: 13-17E, elevation: 11 m

METAR: missing

Time: 20:28 (18:28 UTC)

Forecast

The report was made 1 hour and 28 minutes ago, at 17:00 UTC
Forecast valid from 27 at 18 UTC to 28 at 18 UTC
Wind 12 kt from the North
Visibility: 8000 m
Becoming
from 28 at 00 UTC to 28 at 02 UTC
Wind 2 kt from variable directions
Becoming
from 28 at 13 UTC to 28 at 15 UTC
Wind 12 kt from the Northwest

TAF: HLLM 271700Z 2718/2818 35012KT 8000 NSC BECMG 2800/2802 VRB02KT BECMG 2813/2815 32012KT

Weather observations and forecasts of more than 4000 airports (METAR and TAF reports).

The available stations are represented by yellow and red dots on the map.

Hover mouse over dot to see the name of the station.

Then click to see weather observations and forecasts.

To change the map : click on the green buttons with a black cross to zoom in, on the green button with a dash to zoom out, or on the green arrows for adjacent maps.


METAR-TAF: